createdAt,value
2019-05-29T00:03:25.297Z,94937.66
2019-05-29T00:08:27.400Z,94939.86
2019-05-29T00:13:28.741Z,94944.34
2019-05-29T00:18:30.125Z,94942.13
2019-05-29T00:23:31.509Z,94941.68
2019-05-29T00:28:32.789Z,94942.63
2019-05-29T00:33:34.067Z,94935.58
2019-05-29T00:38:35.441Z,94939.36
2019-05-29T00:43:36.810Z,94942.94
2019-05-29T00:48:38.185Z,94949.49
2019-05-29T00:53:40.333Z,94948.91
2019-05-29T00:58:41.733Z,94947.69
2019-05-29T01:03:43.096Z,94949.44
2019-05-29T01:08:44.408Z,94942.61
2019-05-29T01:13:45.748Z,94948.63
2019-05-29T01:18:47.113Z,94946.46
2019-05-29T01:23:48.433Z,94951.21
2019-05-29T01:28:49.833Z,94948.08
2019-05-29T01:33:51.202Z,94953.66
2019-05-29T01:38:52.569Z,94955.47
2019-05-29T01:43:53.925Z,94961.01
2019-05-29T01:48:56.031Z,94959.53
2019-05-29T01:53:57.356Z,94959.65
2019-05-29T01:58:58.745Z,94968.25
2019-05-29T02:04:00.142Z,94970.45
2019-05-29T02:09:01.534Z,94977.64
2019-05-29T02:14:02.906Z,94979.41
2019-05-29T02:19:04.301Z,94991.22
2019-05-29T02:24:06.362Z,94994.61
2019-05-29T02:29:07.825Z,94995.64
2019-05-29T02:34:09.202Z,94999.62
2019-05-29T02:39:11.299Z,95005.55
2019-05-29T02:44:12.596Z,95019.86
2019-05-29T02:49:13.970Z,95021.03
2019-05-29T02:54:15.334Z,95029.30
2019-05-29T02:59:16.725Z,95040.50
2019-05-29T03:04:18.143Z,95050.52
2019-05-29T03:09:19.486Z,95047.12
2019-05-29T03:14:20.928Z,95056.20
2019-05-29T03:19:23.902Z,95057.17
2019-05-29T03:24:24.574Z,95059.84
2019-05-29T03:29:26.228Z,95066.69
2019-05-29T03:34:30.746Z,95068.47
2019-05-29T03:39:30.370Z,95082.23
2019-05-29T03:44:30.892Z,95087.72
2019-05-29T03:49:33.196Z,95094.59
2019-05-29T03:54:35.311Z,95099.68
2019-05-29T03:59:35.926Z,95106.73
2019-05-29T04:04:38.017Z,95113.14
2019-05-29T04:09:37.552Z,95122.11
2019-05-29T04:14:38.938Z,95127.77
2019-05-29T04:19:40.321Z,95130.89
2019-05-29T04:24:42.406Z,95139.44
2019-05-29T04:29:43.757Z,95146.94
2019-05-29T04:34:45.883Z,95146.69
2019-05-29T04:39:47.336Z,95150.52
2019-05-29T04:44:48.674Z,95159.89
2019-05-29T04:49:50.827Z,95164.32
2019-05-29T04:54:52.163Z,95170.59
2019-05-29T04:59:53.444Z,95174.98
2019-05-29T05:04:54.852Z,95185.03
2019-05-29T05:09:56.953Z,95187.53
2019-05-29T05:14:58.551Z,95192.77
2019-05-29T05:20:00.157Z,95196.99
2019-05-29T05:25:01.583Z,95207.95
2019-05-29T05:30:02.927Z,95218.54
2019-05-29T05:35:05.312Z,95217.15
2019-05-29T05:40:06.713Z,95227.06
2019-05-29T05:45:08.159Z,95227.23
2019-05-29T05:50:09.577Z,95234.59
2019-05-29T05:55:11.074Z,95234.58
2019-05-29T06:00:12.469Z,95239.83
2019-05-29T06:05:13.835Z,95241.73
2019-05-29T06:10:15.273Z,95250.67
2019-05-29T06:15:16.626Z,95254.48
2019-05-29T06:20:18.021Z,95257.72
2019-05-29T06:25:19.384Z,95265.77
2019-05-29T06:30:20.801Z,95270.61
2019-05-29T06:35:22.205Z,95268.05
2019-05-29T06:40:27.577Z,95266.44
2019-05-29T06:45:29.875Z,95278.72
2019-05-29T06:50:31.413Z,95279.53
2019-05-29T06:55:32.792Z,95281.31
2019-05-29T07:00:35.633Z,95286.39
2019-05-29T07:05:35.660Z,95296.22
2019-05-29T07:10:38.381Z,95304.01
2019-05-29T07:15:38.670Z,95303.13
2019-05-29T07:20:40.642Z,95307.63
2019-05-29T07:25:41.296Z,95311.89
2019-05-29T07:30:47.309Z,95310.56
2019-05-29T07:35:44.098Z,95324.31
2019-05-29T07:40:47.717Z,95331.98
2019-05-29T07:45:48.127Z,95333.33
2019-05-29T07:50:48.543Z,95340.78
2019-05-29T07:55:49.872Z,95345.47
2019-05-29T08:01:09.898Z,95356.69
2019-05-29T08:05:53.375Z,95348.39
2019-05-29T08:10:54.775Z,95356.98
2019-05-29T08:16:02.654Z,95359.09
2019-05-29T08:20:58.373Z,95364.39
2019-05-29T08:25:59.673Z,95367.34
2019-05-29T08:31:01.776Z,95365.36
2019-05-29T08:36:03.179Z,95371.50
2019-05-29T08:41:05.976Z,95375.08
2019-05-29T08:46:05.946Z,95381.03
2019-05-29T08:51:07.381Z,95378.56
2019-05-29T08:56:08.710Z,95392.41
2019-05-29T09:01:10.083Z,95392.48
2019-05-29T09:06:13.608Z,95387.55
2019-05-29T09:11:12.821Z,95400.20
2019-05-29T09:16:14.161Z,95400.16
2019-05-29T09:21:17.173Z,95390.50
2019-05-29T09:26:22.150Z,95402.70
2019-05-29T09:31:18.658Z,95407.56
2019-05-29T09:36:20.868Z,95411.25
2019-05-29T09:41:23.403Z,95414.40
2019-05-29T09:46:23.829Z,95416.59
2019-05-29T09:51:24.844Z,95419.31
2019-05-29T09:56:26.210Z,95426.69
2019-05-29T10:01:27.625Z,95420.00
2019-05-29T10:06:28.908Z,95407.89
2019-05-29T10:11:30.971Z,95422.03
2019-05-29T10:16:32.359Z,95423.20
2019-05-29T10:21:40.625Z,95422.57
2019-05-29T10:26:35.820Z,95424.03
2019-05-29T10:31:37.200Z,95430.20
2019-05-29T10:36:38.553Z,95432.09
2019-05-29T10:41:39.852Z,95433.70
2019-05-29T10:46:41.190Z,95431.78
2019-05-29T10:51:58.105Z,95434.73
2019-05-29T10:56:44.711Z,95439.71
2019-05-29T11:01:45.292Z,95438.34
2019-05-29T11:06:47.898Z,95440.97
2019-05-29T11:11:48.403Z,95438.30
2019-05-29T11:16:50.854Z,95441.12
2019-05-29T11:21:51.737Z,95450.75
2019-05-29T11:26:52.540Z,95451.39
2019-05-29T11:31:54.978Z,95456.22
2019-05-29T11:36:54.907Z,95458.22
2019-05-29T11:41:56.855Z,95446.49
2019-05-29T11:46:58.171Z,95447.28
2019-05-29T11:52:22.828Z,95456.43
2019-05-29T11:57:00.290Z,95465.30
2019-05-29T12:02:03.443Z,95453.28
2019-05-29T12:07:03.046Z,95459.18
2019-05-29T12:12:04.409Z,95454.72
2019-05-29T12:17:05.758Z,95460.47
2019-05-29T12:22:07.082Z,95460.81
2019-05-29T12:27:09.186Z,95458.45
2019-05-29T12:32:12.144Z,95465.93
2019-05-29T12:37:12.397Z,95470.72
2019-05-29T12:42:13.814Z,95461.02
2019-05-29T12:47:15.145Z,95464.45
2019-05-29T12:52:16.467Z,95469.88
2019-05-29T12:57:17.800Z,95471.30
2019-05-29T13:02:19.136Z,95479.94
2019-05-29T13:07:20.479Z,95476.41
2019-05-29T13:12:21.903Z,95489.31
2019-05-29T13:17:23.970Z,95483.80
2019-05-29T13:22:25.287Z,95484.86
2019-05-29T13:27:27.340Z,95489.81
2019-05-29T13:32:28.655Z,95493.89
2019-05-29T13:37:30.008Z,95490.86
2019-05-29T13:42:32.104Z,95508.30
2019-05-29T13:47:33.561Z,95508.06
2019-05-29T13:52:35.658Z,95509.14
2019-05-29T13:57:39.721Z,95516.36
2019-05-29T14:02:38.373Z,95524.32
2019-05-29T14:07:39.926Z,95529.73
2019-05-29T14:12:41.313Z,95538.56
2019-05-29T14:17:43.452Z,95548.38
2019-05-29T14:22:44.866Z,95548.05
2019-05-29T14:27:46.213Z,95550.66
2019-05-29T14:32:48.270Z,95554.25
2019-05-29T14:37:50.521Z,95556.35
2019-05-29T14:42:52.008Z,95551.09
2019-05-29T14:47:53.390Z,95563.97
2019-05-29T14:52:54.763Z,95562.97
2019-05-29T14:57:56.809Z,95561.47
2019-05-29T15:02:58.172Z,95562.45
2019-05-29T15:07:59.574Z,95572.12
2019-05-29T15:13:01.691Z,95569.13
2019-05-29T15:18:03.128Z,95580.13
2019-05-29T15:23:05.163Z,95585.27
2019-05-29T15:28:06.159Z,95599.54
2019-05-29T15:33:08.458Z,95598.90
2019-05-29T15:38:10.668Z,95597.16
2019-05-29T15:43:10.903Z,95601.42
2019-05-29T15:48:13.099Z,95605.03
2019-05-29T15:53:23.322Z,95607.77
2019-05-29T15:58:24.654Z,95613.52
2019-05-29T16:08:38.376Z,95628.87
2019-05-29T16:13:40.506Z,95630.05
2019-05-29T16:18:41.836Z,95643.56
2019-05-29T16:23:43.901Z,95638.79
2019-05-29T16:28:45.218Z,95644.52
2019-05-29T16:33:46.665Z,95651.33
2019-05-29T16:38:48.073Z,95654.58
2019-05-29T16:43:49.502Z,95653.64
2019-05-29T16:48:51.010Z,95661.98
2019-05-29T16:53:52.326Z,95668.06
2019-05-29T16:58:53.647Z,95667.55
2019-05-29T17:03:55.030Z,95682.69
2019-05-29T17:08:56.328Z,95688.50
2019-05-29T17:13:57.676Z,95691.88
2019-05-29T17:18:59.740Z,95692.42
2019-05-29T17:24:01.796Z,95691.02
2019-05-29T17:29:03.124Z,95697.58
2019-05-29T17:34:04.441Z,95705.33
2019-05-29T17:39:05.796Z,95711.22
2019-05-29T17:44:07.270Z,95713.88
2019-05-29T17:49:08.567Z,95718.81
2019-05-29T17:54:10.010Z,95719.69
2019-05-29T17:59:12.121Z,95731.92
2019-05-29T18:04:13.477Z,95740.03
2019-05-29T18:09:14.870Z,95751.25
2019-05-29T18:14:17.384Z,95751.70
2019-05-29T18:19:23.695Z,95758.92
2019-05-29T18:24:28.070Z,95764.09
2019-05-29T18:29:30.730Z,95774.86
2019-05-29T18:34:35.463Z,95777.21
2019-05-29T18:39:39.238Z,95779.85
2019-05-29T18:44:41.336Z,95785.58
2019-05-29T18:49:45.905Z,95788.73
2019-05-29T18:54:49.266Z,95790.44
2019-05-29T18:59:52.628Z,95801.31
2019-05-29T19:04:54.548Z,95804.95
2019-05-29T19:09:56.706Z,95813.20
2019-05-29T19:15:02.276Z,95821.81
2019-05-29T19:20:06.376Z,95835.15
2019-05-29T19:25:12.516Z,95848.29
2019-05-29T19:30:14.674Z,95856.99
2019-05-29T19:35:18.704Z,95863.44
2019-05-29T19:40:22.088Z,95871.90
2019-05-29T19:45:36.819Z,95879.81
2019-05-29T19:50:43.313Z,95883.80
2019-05-29T19:55:47.048Z,95889.30
2019-05-29T20:00:48.425Z,95888.86
2019-05-29T20:05:50.493Z,95892.79
2019-05-29T20:10:51.902Z,95900.66
2019-05-29T20:15:53.225Z,95900.78
2019-05-29T20:20:55.280Z,95909.05
2019-05-29T20:25:56.593Z,95908.83
2019-05-29T20:30:57.916Z,95908.77
2019-05-29T20:35:59.329Z,95914.44
2019-05-29T20:41:00.878Z,95915.04
2019-05-29T20:46:03.024Z,95917.62
2019-05-29T20:51:04.424Z,95924.46
2019-05-29T20:56:06.573Z,95937.98
2019-05-29T21:01:07.926Z,95932.94
2019-05-29T21:06:09.468Z,95943.14
2019-05-29T21:11:10.789Z,95944.97
2019-05-29T21:16:12.138Z,95948.86
2019-05-29T21:21:13.472Z,95949.16
2019-05-29T21:26:14.837Z,95950.39
2019-05-29T21:31:16.226Z,95948.19
2019-05-29T21:36:17.592Z,95953.34
2019-05-29T21:41:19.001Z,95959.31
2019-05-29T21:46:21.137Z,95963.94
2019-05-29T21:51:22.515Z,95971.78
2019-05-29T21:56:23.858Z,95965.94
2019-05-29T22:01:25.282Z,95967.14
2019-05-29T22:06:26.606Z,95972.73
2019-05-29T22:11:27.945Z,95971.19
2019-05-29T22:16:29.319Z,95978.57
2019-05-29T22:21:30.677Z,95983.76
2019-05-29T22:26:32.026Z,95981.39
2019-05-29T22:31:34.152Z,95977.28
2019-05-29T22:36:35.545Z,95984.59
2019-05-29T22:41:36.894Z,95989.95
2019-05-29T22:46:38.231Z,95992.31
2019-05-29T22:51:39.560Z,95996.50
2019-05-29T22:56:40.892Z,95999.78
2019-05-29T23:01:42.333Z,95995.62
2019-05-29T23:06:43.666Z,95999.06
2019-05-29T23:11:45.048Z,95994.91
2019-05-29T23:16:46.503Z,95993.69
2019-05-29T23:21:47.865Z,95985.41
2019-05-29T23:26:49.282Z,95984.91
2019-05-29T23:31:50.675Z,95987.68
2019-05-29T23:36:52.955Z,95990.98
2019-05-29T23:41:55.226Z,95991.00
2019-05-29T23:46:57.535Z,95992.23
2019-05-29T23:51:59.619Z,95988.39
2019-05-29T23:57:00.058Z,95990.78
